createdAt,value
2019-06-01T00:02:35.948Z,19.60
2019-06-01T00:07:40.729Z,15.00
2019-06-01T00:12:45.315Z,17.02
2019-06-01T00:17:50.902Z,17.80
2019-06-01T00:22:54.795Z,16.25
2019-06-01T00:27:58.719Z,13.45
2019-06-01T00:33:02.601Z,17.48
2019-06-01T00:38:18.825Z,15.65
2019-06-01T00:43:22.742Z,17.25
2019-06-01T00:48:26.656Z,15.50
2019-06-01T00:53:30.581Z,16.85
2019-06-01T00:58:34.455Z,17.25
2019-06-01T01:03:38.691Z,19.92
2019-06-01T01:08:42.597Z,14.85
2019-06-01T01:13:47.199Z,16.12
2019-06-01T01:18:51.829Z,19.20
2019-06-01T01:23:56.713Z,14.13
2019-06-01T01:29:00.749Z,14.98
2019-06-01T01:34:04.749Z,14.53
2019-06-01T01:39:10.171Z,15.78
2019-06-01T01:44:14.081Z,17.37
2019-06-01T01:49:18.004Z,16.52
2019-06-01T01:54:21.953Z,15.00
2019-06-01T01:59:25.936Z,17.73
2019-06-01T02:04:29.865Z,18.50
2019-06-01T02:09:33.797Z,18.45
2019-06-01T02:14:37.742Z,17.25
2019-06-01T02:19:41.706Z,19.85
2019-06-01T02:24:45.681Z,24.12
2019-06-01T02:29:49.595Z,17.42
2019-06-01T02:34:54.333Z,22.42
2019-06-01T02:39:58.463Z,21.30
2019-06-01T02:45:03.617Z,18.32
2019-06-01T02:50:09.160Z,22.00
2019-06-01T02:55:16.140Z,22.40
2019-06-01T03:00:24.980Z,20.75
2019-06-01T03:05:28.653Z,20.87
2019-06-01T03:10:32.754Z,20.95
2019-06-01T03:15:42.786Z,20.60
2019-06-01T03:20:48.360Z,16.42
2019-06-01T03:25:53.987Z,24.82
2019-06-01T03:30:57.896Z,22.32
2019-06-01T03:36:02.777Z,22.00
2019-06-01T03:41:10.502Z,21.20
2019-06-01T03:46:14.095Z,22.65
2019-06-01T03:51:17.991Z,22.85
2019-06-01T03:56:21.870Z,19.85
2019-06-01T04:01:25.805Z,23.02
2019-06-01T04:06:29.712Z,20.88
2019-06-01T04:11:33.622Z,28.47
2019-06-01T04:16:39.072Z,22.20
2019-06-01T04:21:42.968Z,19.92
2019-06-01T04:26:46.854Z,20.62
2019-06-01T04:31:50.752Z,22.13
2019-06-01T04:36:54.665Z,20.57
2019-06-01T04:41:58.551Z,22.27
2019-06-01T04:47:02.461Z,25.82
2019-06-01T04:52:08.820Z,21.87
2019-06-01T04:57:13.083Z,24.67
2019-06-01T05:02:17.003Z,20.08
2019-06-01T05:07:20.895Z,20.48
2019-06-01T05:12:24.802Z,22.58
2019-06-01T05:17:28.681Z,24.80
2019-06-01T05:22:32.568Z,23.07
2019-06-01T05:27:36.459Z,19.73
2019-06-01T05:32:40.363Z,24.45
2019-06-01T05:37:44.256Z,23.32
2019-06-01T05:42:48.128Z,23.25
2019-06-01T05:47:52.021Z,24.70
2019-06-01T05:52:55.910Z,24.25
2019-06-01T05:57:59.793Z,27.25
2019-06-01T06:03:03.709Z,25.77
2019-06-01T06:08:07.601Z,25.97
2019-06-01T06:13:11.481Z,26.17
2019-06-01T06:18:15.794Z,23.77
2019-06-01T06:23:20.558Z,26.33
2019-06-01T06:28:26.661Z,24.85
2019-06-01T06:33:30.084Z,27.90
2019-06-01T06:38:33.979Z,26.20
2019-06-01T06:43:37.870Z,21.90
2019-06-01T06:48:41.759Z,24.82
2019-06-01T06:53:45.645Z,19.70
2019-06-01T06:58:50.079Z,17.23
2019-06-01T07:03:54.031Z,18.02
2019-06-01T07:08:58.055Z,23.55
2019-06-01T07:14:01.926Z,18.35
2019-06-01T07:19:05.817Z,20.12
2019-06-01T07:24:09.728Z,19.17
2019-06-01T07:29:13.591Z,14.38
2019-06-01T07:34:31.050Z,11.73
2019-06-01T07:39:23.130Z,12.18
2019-06-01T07:44:27.028Z,13.50
2019-06-01T07:49:31.164Z,10.72
2019-06-01T07:54:35.088Z,11.00
2019-06-01T07:59:38.969Z,15.03
2019-06-01T08:04:53.207Z,9.88
2019-06-01T08:09:48.454Z,10.35
2019-06-01T08:14:52.355Z,13.18
2019-06-01T08:19:56.310Z,14.40
2019-06-01T08:25:01.946Z,9.58
2019-06-01T08:30:07.929Z,10.60
2019-06-01T08:35:12.693Z,13.00
2019-06-01T08:40:16.812Z,15.20
2019-06-01T08:45:20.855Z,12.25
2019-06-01T08:50:25.692Z,11.78
2019-06-01T08:55:30.181Z,12.82
2019-06-01T09:00:37.040Z,11.38
2019-06-01T09:05:40.966Z,14.25
2019-06-01T09:10:46.586Z,13.45
2019-06-01T09:15:50.771Z,11.45
2019-06-01T09:20:54.800Z,14.65
2019-06-01T09:26:00.125Z,9.70
2019-06-01T09:31:04.083Z,8.08
2019-06-01T09:36:09.240Z,8.83
2019-06-01T09:41:13.423Z,7.62
2019-06-01T09:46:17.500Z,6.70
2019-06-01T09:51:21.530Z,6.90
2019-06-01T09:56:29.062Z,9.68
2019-06-01T10:01:32.347Z,7.40
2019-06-01T10:06:36.753Z,10.00
2019-06-01T10:11:42.468Z,11.28
2019-06-01T10:16:46.593Z,10.10
2019-06-01T10:21:50.631Z,10.88
2019-06-01T10:26:54.527Z,8.68
2019-06-01T10:31:58.408Z,7.53
2019-06-01T10:37:02.302Z,9.18
2019-06-01T10:42:06.199Z,9.68
2019-06-01T10:47:10.125Z,6.17
2019-06-01T10:52:14.045Z,7.22
2019-06-01T10:57:17.977Z,9.90
2019-06-01T11:02:21.927Z,9.08
2019-06-01T11:07:25.966Z,5.85
2019-06-01T11:12:29.991Z,12.05
2019-06-01T11:17:35.562Z,10.10
2019-06-01T11:22:39.633Z,11.75
2019-06-01T11:27:44.063Z,15.20
2019-06-01T11:32:48.022Z,13.05
2019-06-01T11:37:51.907Z,15.25
2019-06-01T11:42:55.782Z,14.55
2019-06-01T11:47:59.669Z,10.68
2019-06-01T11:53:03.548Z,7.60
2019-06-01T11:58:07.453Z,8.30
2019-06-01T12:03:11.323Z,10.20
2019-06-01T12:08:15.202Z,7.47
2019-06-01T12:13:19.088Z,6.65
2019-06-01T12:18:22.965Z,10.10
2019-06-01T12:23:26.856Z,8.13
2019-06-01T12:28:30.721Z,7.17
2019-06-01T12:33:34.604Z,7.22
2019-06-01T12:38:52.101Z,7.75
2019-06-01T12:44:09.486Z,5.53
2019-06-01T12:49:13.434Z,8.90
2019-06-01T12:54:17.321Z,13.32
2019-06-01T12:59:22.779Z,9.73
2019-06-01T13:04:26.671Z,11.55
2019-06-01T13:09:30.646Z,14.07
2019-06-01T13:14:35.986Z,9.13
2019-06-01T13:19:41.164Z,8.85
2019-06-01T13:24:45.751Z,8.03
2019-06-01T13:29:50.197Z,8.35
2019-06-01T13:34:55.807Z,9.38
2019-06-01T13:39:59.687Z,7.00
2019-06-01T13:45:05.526Z,6.12
2019-06-01T13:50:10.021Z,8.95
2019-06-01T13:55:14.185Z,8.58
2019-06-01T14:00:29.675Z,4.37
2019-06-01T14:05:23.796Z,5.22
2019-06-01T14:10:27.669Z,7.28
2019-06-01T14:15:32.553Z,6.58
2019-06-01T14:20:36.426Z,8.58
2019-06-01T14:25:40.433Z,4.95
2019-06-01T14:30:44.310Z,4.22
2019-06-01T14:35:48.417Z,7.40
2019-06-01T14:40:53.661Z,5.10
2019-06-01T14:45:58.094Z,6.95
2019-06-01T14:51:02.075Z,6.55
2019-06-01T14:56:06.388Z,6.97
2019-06-01T15:01:10.251Z,6.08
2019-06-01T15:06:14.133Z,5.92
2019-06-01T15:11:19.371Z,8.38
2019-06-01T15:16:25.971Z,10.98
2019-06-01T15:21:29.817Z,7.40
2019-06-01T15:26:33.684Z,5.97
2019-06-01T15:31:37.675Z,13.40
2019-06-01T15:36:41.603Z,5.87
2019-06-01T15:41:45.529Z,8.30
2019-06-01T15:46:49.621Z,5.17
2019-06-01T15:51:57.835Z,7.17
2019-06-01T15:57:02.700Z,6.80
2019-06-01T16:02:06.867Z,9.58
2019-06-01T16:07:10.794Z,8.18
2019-06-01T16:12:19.819Z,6.12
2019-06-01T16:17:23.460Z,5.47
2019-06-01T16:22:27.390Z,5.75
2019-06-01T16:27:31.314Z,5.80
2019-06-01T16:32:39.097Z,7.20
2019-06-01T16:37:40.816Z,9.73
2019-06-01T16:42:44.836Z,6.62
2019-06-01T16:47:48.866Z,9.38
2019-06-01T16:52:52.894Z,7.03
2019-06-01T16:57:57.036Z,15.75
2019-06-01T17:03:01.163Z,8.30
2019-06-01T17:08:05.291Z,18.62
2019-06-01T17:13:10.053Z,7.62
2019-06-01T17:18:13.931Z,6.22
2019-06-01T17:23:27.856Z,8.68
2019-06-01T17:28:23.357Z,7.62
2019-06-01T17:33:28.869Z,7.83
2019-06-01T17:38:32.750Z,11.45
2019-06-01T17:43:36.638Z,8.48
2019-06-01T17:48:40.718Z,8.58
2019-06-01T17:53:44.608Z,7.85
2019-06-01T17:58:48.476Z,10.60
2019-06-01T18:03:52.359Z,7.58
2019-06-01T18:08:56.251Z,9.63
2019-06-01T18:14:00.228Z,10.50
2019-06-01T18:19:04.401Z,11.03
2019-06-01T18:24:09.466Z,23.02
2019-06-01T18:29:13.937Z,16.25
2019-06-01T18:34:20.064Z,12.98
2019-06-01T18:39:23.981Z,10.82
2019-06-01T18:44:27.855Z,9.00
2019-06-01T18:49:31.741Z,15.20
2019-06-01T18:54:35.625Z,13.25
2019-06-01T18:59:41.366Z,12.78
2019-06-01T19:04:45.225Z,11.95
2019-06-01T19:09:49.137Z,28.27
2019-06-01T19:14:59.725Z,32.73
2019-06-01T19:20:06.447Z,32.38
2019-06-01T19:25:11.951Z,36.95
2019-06-01T19:30:21.000Z,38.20
2019-06-01T19:35:24.910Z,20.97
2019-06-01T19:40:33.882Z,21.90
2019-06-01T19:45:37.775Z,22.55
2019-06-01T19:50:41.656Z,17.65
2019-06-01T19:55:45.539Z,27.75
2019-06-01T20:00:49.424Z,33.42
2019-06-01T20:05:53.303Z,21.73
2019-06-01T20:11:01.340Z,16.20
2019-06-01T20:16:05.303Z,12.63
2019-06-01T20:21:09.192Z,12.50
2019-06-01T20:26:13.200Z,11.70
2019-06-01T20:31:19.901Z,14.10
2019-06-01T20:36:23.839Z,15.10
2019-06-01T20:41:27.761Z,16.97
2019-06-01T20:46:31.679Z,15.55
2019-06-01T20:51:35.570Z,14.98
2019-06-01T20:56:39.469Z,19.75
2019-06-01T21:01:43.354Z,19.55
2019-06-01T21:06:47.273Z,21.23
2019-06-01T21:11:51.249Z,15.88
2019-06-01T21:16:59.560Z,21.73
2019-06-01T21:22:03.476Z,14.33
2019-06-01T21:27:07.388Z,17.45
2019-06-01T21:32:11.291Z,20.10
2019-06-01T21:37:15.404Z,20.17
2019-06-01T21:42:19.657Z,18.25
2019-06-01T21:47:23.884Z,22.73
2019-06-01T21:52:27.851Z,21.68
2019-06-01T21:57:31.775Z,24.37
2019-06-01T22:02:35.655Z,23.52
2019-06-01T22:07:39.566Z,23.77
2019-06-01T22:12:43.721Z,23.40
2019-06-01T22:17:47.758Z,29.50
2019-06-01T22:22:51.682Z,26.65
2019-06-01T22:27:55.566Z,25.10
2019-06-01T22:32:59.479Z,27.67
2019-06-01T22:38:03.389Z,22.37
2019-06-01T22:43:07.317Z,26.75
2019-06-01T22:48:12.352Z,22.45
2019-06-01T22:53:16.250Z,23.47
2019-06-01T22:58:21.612Z,24.02
2019-06-01T23:03:25.788Z,20.88
2019-06-01T23:08:29.780Z,22.22
2019-06-01T23:13:33.656Z,28.77
2019-06-01T23:18:37.643Z,21.93
2019-06-01T23:23:41.535Z,21.68
2019-06-01T23:28:45.421Z,21.80
2019-06-01T23:33:51.970Z,18.32
2019-06-01T23:38:55.862Z,23.38
2019-06-01T23:44:11.192Z,23.70
2019-06-01T23:49:05.343Z,20.48
2019-06-01T23:54:09.228Z,20.32
2019-06-01T23:59:13.141Z,17.20
